createdAt,value
2017-06-01T00:00:29.813Z,0
2017-06-01T00:01:30.464Z,0
2017-06-01T00:02:30.183Z,0
2017-06-01T00:03:30.522Z,0
2017-06-01T00:04:30.236Z,0
2017-06-01T00:05:30.267Z,0
2017-06-01T00:06:30.620Z,0
2017-06-01T00:07:30.334Z,0
2017-06-01T00:08:30.680Z,0
2017-06-01T00:09:30.398Z,0
2017-06-01T00:10:30.739Z,0
2017-06-01T00:11:30.779Z,0
2017-06-01T00:12:30.796Z,0
2017-06-01T00:13:30.824Z,0
2017-06-01T00:14:30.545Z,0
2017-06-01T00:15:30.891Z,0
2017-06-01T00:16:30.290Z,0
2017-06-01T00:17:31.199Z,0
2017-06-01T00:18:31.016Z,0
2017-06-01T00:19:31.016Z,0
2017-06-01T00:20:30.725Z,0
2017-06-01T00:21:31.067Z,0
2017-06-01T00:22:30.724Z,0
2017-06-01T00:23:31.124Z,0
2017-06-01T00:24:31.157Z,0
2017-06-01T00:25:31.190Z,0
2017-06-01T00:26:30.911Z,0
2017-06-01T00:27:31.187Z,0
2017-06-01T00:28:31.276Z,0
2017-06-01T00:29:31.308Z,0
2017-06-01T00:30:31.342Z,0
2017-06-01T00:31:31.366Z,0
2017-06-01T00:32:31.051Z,0
2017-06-01T00:33:31.119Z,0
2017-06-01T00:34:31.153Z,0
2017-06-01T00:35:31.498Z,0
2017-06-01T00:36:31.211Z,0
2017-06-01T00:37:31.812Z,0
2017-06-01T00:38:31.584Z,0
2017-06-01T00:39:31.608Z,0
2017-06-01T00:40:31.330Z,0
2017-06-01T00:41:31.670Z,0
2017-06-01T00:42:31.955Z,0
2017-06-01T00:43:31.738Z,0
2017-06-01T00:44:31.828Z,0
2017-06-01T00:45:31.475Z,0
2017-06-01T00:46:31.202Z,0
2017-06-01T00:47:31.477Z,0
2017-06-01T00:48:31.570Z,0
2017-06-01T00:49:31.921Z,0
2017-06-01T00:50:31.624Z,0
2017-06-01T00:51:31.662Z,0
2017-06-01T00:52:31.630Z,0
2017-06-01T00:53:32.033Z,0
2017-06-01T00:54:32.057Z,0
2017-06-01T00:55:31.795Z,0
2017-06-01T00:56:32.127Z,0
2017-06-01T00:57:32.092Z,0
2017-06-01T00:58:31.878Z,0
2017-06-01T00:59:32.222Z,0
2017-06-01T01:00:31.939Z,0
2017-06-01T01:01:32.275Z,0
2017-06-01T01:02:31.932Z,0
2017-06-01T01:03:32.027Z,0
2017-06-01T01:04:32.057Z,0
2017-06-01T01:05:32.086Z,0
2017-06-01T01:06:32.110Z,0
2017-06-01T01:07:32.712Z,0
2017-06-01T01:08:32.489Z,0
2017-06-01T01:09:31.573Z,0
2017-06-01T01:10:32.230Z,0
2017-06-01T01:11:32.574Z,0
2017-06-01T01:12:32.860Z,0
2017-06-01T01:13:32.017Z,0
2017-06-01T01:14:32.359Z,0
2017-06-01T01:15:32.374Z,0
2017-06-01T01:16:32.730Z,0
2017-06-01T01:17:33.016Z,0
2017-06-01T01:18:32.468Z,0
2017-06-01T01:19:32.505Z,0
2017-06-01T01:20:32.532Z,0
2017-06-01T01:21:32.249Z,0
2017-06-01T01:22:33.163Z,0
2017-06-01T01:23:32.941Z,0
2017-06-01T01:24:32.653Z,0
2017-06-01T01:25:32.371Z,0
2017-06-01T01:26:33.027Z,0
2017-06-01T01:27:33.310Z,0
2017-06-01T01:28:33.088Z,0
2017-06-01T01:29:32.821Z,0
2017-06-01T01:30:33.145Z,0
2017-06-01T01:31:33.199Z,0
2017-06-01T01:32:33.487Z,0
2017-06-01T01:33:33.247Z,0
2017-06-01T01:34:33.264Z,0
2017-06-01T01:35:33.303Z,0
2017-06-01T01:36:33.020Z,0
2017-06-01T01:37:33.292Z,0
2017-06-01T01:38:33.385Z,0
2017-06-01T01:39:33.414Z,0
2017-06-01T01:40:33.141Z,0
2017-06-01T01:41:33.484Z,0
2017-06-01T01:42:33.764Z,0
2017-06-01T01:43:33.535Z,0
2017-06-01T01:44:33.589Z,0
2017-06-01T01:45:33.290Z,0
2017-06-01T01:46:33.318Z,0
2017-06-01T01:47:33.912Z,0
2017-06-01T01:48:33.057Z,0
2017-06-01T01:49:33.722Z,0
2017-06-01T01:50:33.438Z,0
2017-06-01T01:51:33.776Z,0
2017-06-01T01:52:33.744Z,0
2017-06-01T01:53:33.524Z,0
2017-06-01T01:54:33.868Z,0
2017-06-01T01:55:33.591Z,0
2017-06-01T01:56:33.304Z,0
2017-06-01T01:57:34.152Z,0
2017-06-01T01:58:33.365Z,0
2017-06-01T01:59:33.391Z,0
2017-06-01T02:00:34.052Z,0
2017-06-01T02:01:34.080Z,0
2017-06-01T02:02:34.364Z,0
2017-06-01T02:03:34.141Z,0
2017-06-01T02:04:33.546Z,0
2017-06-01T02:05:33.890Z,0
2017-06-01T02:06:34.228Z,0
2017-06-01T02:07:34.513Z,0
2017-06-01T02:08:34.311Z,0
2017-06-01T02:09:34.319Z,0
2017-06-01T02:10:34.352Z,0
2017-06-01T02:11:34.384Z,0
2017-06-01T02:12:34.664Z,0
2017-06-01T02:13:34.437Z,0
2017-06-01T02:14:34.159Z,0
2017-06-01T02:15:34.252Z,0
2017-06-01T02:16:34.535Z,0
2017-06-01T02:17:34.249Z,0
2017-06-01T02:18:34.286Z,0
2017-06-01T02:19:34.618Z,0
2017-06-01T02:20:34.341Z,0
2017-06-01T02:21:34.684Z,0
2017-06-01T02:22:34.713Z,0
2017-06-01T02:23:34.741Z,0
2017-06-01T02:24:34.453Z,0
2017-06-01T02:25:34.487Z,0
2017-06-01T02:26:34.833Z,0
2017-06-01T02:27:34.544Z,0
2017-06-01T02:28:34.890Z,0
2017-06-01T02:29:34.605Z,0
2017-06-01T02:30:34.951Z,0
2017-06-01T02:31:34.669Z,0
2017-06-01T02:32:35.005Z,0
2017-06-01T02:33:34.724Z,0
2017-06-01T02:34:34.760Z,0
2017-06-01T02:35:35.103Z,0
2017-06-01T02:36:34.817Z,0
2017-06-01T02:37:34.845Z,0
2017-06-01T02:38:35.190Z,0
2017-06-01T02:39:35.228Z,0
2017-06-01T02:40:35.255Z,0
2017-06-01T02:41:35.280Z,0
2017-06-01T02:42:35.329Z,0
2017-06-01T02:43:35.029Z,0
2017-06-01T02:44:34.743Z,0
2017-06-01T02:45:34.775Z,0
2017-06-01T02:46:35.120Z,0
2017-06-01T02:47:34.833Z,0
2017-06-01T02:48:35.174Z,0
2017-06-01T02:49:35.206Z,0
2017-06-01T02:50:34.924Z,0
2017-06-01T02:51:35.576Z,0
2017-06-01T02:52:35.301Z,0
2017-06-01T02:53:35.630Z,0
2017-06-01T02:54:35.358Z,0
2017-06-01T02:55:35.700Z,0
2017-06-01T02:56:35.415Z,0
2017-06-01T02:57:35.448Z,0
2017-06-01T02:58:36.192Z,0
2017-06-01T02:59:35.816Z,0
2017-06-01T03:00:35.839Z,0
2017-06-01T03:01:35.871Z,0
2017-06-01T03:02:35.910Z,0
2017-06-01T03:03:35.310Z,0
2017-06-01T03:04:35.967Z,0
2017-06-01T03:05:35.679Z,4
2017-06-01T03:06:36.032Z,4
2017-06-01T03:07:36.061Z,4
2017-06-01T03:08:35.773Z,0
2017-06-01T03:09:36.119Z,4
2017-06-01T03:10:36.148Z,4
2017-06-01T03:11:36.177Z,4
2017-06-01T03:12:35.894Z,4
2017-06-01T03:13:36.227Z,4
2017-06-01T03:14:35.639Z,8
2017-06-01T03:15:36.318Z,4
2017-06-01T03:16:36.333Z,8
2017-06-01T03:17:36.041Z,8
2017-06-01T03:18:35.758Z,12
2017-06-01T03:19:36.419Z,8
2017-06-01T03:20:36.456Z,12
2017-06-01T03:21:36.468Z,12
2017-06-01T03:22:36.188Z,16
2017-06-01T03:23:35.919Z,16
2017-06-01T03:24:36.259Z,20
2017-06-01T03:25:36.595Z,24
2017-06-01T03:26:36.623Z,24
2017-06-01T03:27:36.341Z,24
2017-06-01T03:28:36.369Z,28
2017-06-01T03:29:36.715Z,32
2017-06-01T03:30:36.785Z,36
2017-06-01T03:31:36.151Z,36
2017-06-01T03:32:36.181Z,40
2017-06-01T03:33:36.834Z,44
2017-06-01T03:34:36.875Z,48
2017-06-01T03:35:36.896Z,52
2017-06-01T03:36:36.916Z,52
2017-06-01T03:37:36.953Z,56
2017-06-01T03:38:36.986Z,64
2017-06-01T03:39:37.015Z,68
2017-06-01T03:40:36.735Z,68
2017-06-01T03:41:36.764Z,76
2017-06-01T03:42:37.109Z,80
2017-06-01T03:43:37.382Z,84
2017-06-01T03:44:37.164Z,92
2017-06-01T03:45:37.188Z,96
2017-06-01T03:46:36.598Z,100
2017-06-01T03:47:36.942Z,104
2017-06-01T03:48:37.535Z,112
2017-06-01T03:49:37.319Z,116
2017-06-01T03:50:37.028Z,124
2017-06-01T03:51:37.071Z,128
2017-06-01T03:52:37.401Z,132
2017-06-01T03:53:37.379Z,140
2017-06-01T03:54:37.513Z,144
2017-06-01T03:55:37.492Z,148
2017-06-01T03:56:37.209Z,156
2017-06-01T03:57:37.552Z,164
2017-06-01T03:58:37.781Z,172
2017-06-01T03:59:37.606Z,176
2017-06-01T04:00:37.020Z,180
2017-06-01T04:01:37.049Z,188
2017-06-01T04:02:37.696Z,196
2017-06-01T04:03:37.982Z,200
2017-06-01T04:04:37.443Z,208
2017-06-01T04:05:37.475Z,216
2017-06-01T04:06:37.826Z,220
2017-06-01T04:07:37.854Z,224
2017-06-01T04:08:37.763Z,232
2017-06-01T04:09:37.980Z,236
2017-06-01T04:10:37.628Z,244
2017-06-01T04:11:37.962Z,252
2017-06-01T04:12:37.999Z,260
2017-06-01T04:13:38.279Z,264
2017-06-01T04:14:38.056Z,268
2017-06-01T04:15:38.088Z,272
2017-06-01T04:16:38.121Z,280
2017-06-01T04:17:38.146Z,292
2017-06-01T04:18:38.111Z,308
2017-06-01T04:19:38.208Z,324
2017-06-01T04:20:38.241Z,348
2017-06-01T04:21:37.957Z,360
2017-06-01T04:22:37.981Z,376
2017-06-01T04:23:38.270Z,388
2017-06-01T04:24:38.352Z,392
2017-06-01T04:25:38.389Z,392
2017-06-01T04:26:38.098Z,396
2017-06-01T04:27:38.134Z,396
2017-06-01T04:28:38.414Z,400
2017-06-01T04:29:37.884Z,396
2017-06-01T04:30:38.230Z,396
2017-06-01T04:31:38.567Z,404
2017-06-01T04:32:38.598Z,420
2017-06-01T04:33:38.250Z,444
2017-06-01T04:34:38.652Z,464
2017-06-01T04:35:38.368Z,480
2017-06-01T04:36:38.408Z,496
2017-06-01T04:37:38.743Z,504
2017-06-01T04:38:38.711Z,512
2017-06-01T04:39:38.804Z,520
2017-06-01T04:40:38.827Z,536
2017-06-01T04:41:38.234Z,548
2017-06-01T04:42:38.890Z,560
2017-06-01T04:43:38.571Z,572
2017-06-01T04:44:38.952Z,580
2017-06-01T04:45:38.676Z,600
2017-06-01T04:46:39.010Z,624
2017-06-01T04:47:38.731Z,644
2017-06-01T04:48:39.276Z,664
2017-06-01T04:49:38.792Z,676
2017-06-01T04:50:39.132Z,684
2017-06-01T04:51:38.840Z,680
2017-06-01T04:52:39.195Z,680
2017-06-01T04:53:38.794Z,684
2017-06-01T04:54:39.253Z,692
2017-06-01T04:55:38.656Z,704
2017-06-01T04:56:39.309Z,716
2017-06-01T04:57:38.749Z,716
2017-06-01T04:58:38.990Z,716
2017-06-01T04:59:39.400Z,712
2017-06-01T05:00:38.808Z,716
2017-06-01T05:01:39.149Z,712
2017-06-01T05:02:39.478Z,712
2017-06-01T05:03:39.459Z,728
2017-06-01T05:04:39.236Z,748
2017-06-01T05:05:39.269Z,756
2017-06-01T05:06:39.606Z,772
2017-06-01T05:07:39.002Z,780
2017-06-01T05:08:39.918Z,776
2017-06-01T05:09:39.703Z,772
2017-06-01T05:10:39.101Z,772
2017-06-01T05:11:39.753Z,776
2017-06-01T05:12:39.162Z,776
2017-06-01T05:13:39.191Z,772
2017-06-01T05:14:39.848Z,768
2017-06-01T05:15:39.568Z,768
2017-06-01T05:16:39.902Z,760
2017-06-01T05:17:39.675Z,752
2017-06-01T05:18:39.647Z,756
2017-06-01T05:19:39.374Z,764
2017-06-01T05:20:40.017Z,776
2017-06-01T05:21:39.740Z,788
2017-06-01T05:22:39.774Z,812
2017-06-01T05:23:40.115Z,828
2017-06-01T05:24:40.139Z,832
2017-06-01T05:25:39.859Z,832
2017-06-01T05:26:39.578Z,828
2017-06-01T05:27:39.923Z,824
2017-06-01T05:28:40.291Z,828
2017-06-01T05:29:40.292Z,832
2017-06-01T05:30:40.007Z,836
2017-06-01T05:31:39.418Z,844
2017-06-01T05:32:40.072Z,844
2017-06-01T05:33:39.785Z,836
2017-06-01T05:34:40.381Z,824
2017-06-01T05:35:40.482Z,824
2017-06-01T05:36:40.505Z,816
2017-06-01T05:37:40.535Z,808
2017-06-01T05:38:40.551Z,808
2017-06-01T05:39:40.535Z,808
2017-06-01T05:40:40.620Z,808
2017-06-01T05:41:40.347Z,812
2017-06-01T05:42:40.679Z,816
2017-06-01T05:43:40.404Z,816
2017-06-01T05:44:40.942Z,816
2017-06-01T05:45:40.458Z,824
2017-06-01T05:46:40.489Z,840
2017-06-01T05:47:40.522Z,856
2017-06-01T05:48:40.547Z,880
2017-06-01T05:49:41.145Z,904
2017-06-01T05:50:40.609Z,920
2017-06-01T05:51:40.331Z,928
2017-06-01T05:52:40.663Z,940
2017-06-01T05:53:41.004Z,952
2017-06-01T05:54:40.980Z,964
2017-06-01T05:55:41.069Z,976
2017-06-01T05:56:41.099Z,988
2017-06-01T05:57:40.818Z,1000
2017-06-01T05:58:40.527Z,1004
2017-06-01T05:59:41.437Z,1008
2017-06-01T06:00:40.909Z,1008
2017-06-01T06:01:40.934Z,1024
2017-06-01T06:02:41.279Z,1036
2017-06-01T06:03:41.308Z,1040
2017-06-01T06:04:40.655Z,1056
2017-06-01T06:05:41.062Z,1076
2017-06-01T06:06:40.774Z,1096
2017-06-01T06:07:41.115Z,1120
2017-06-01T06:08:41.460Z,1144
2017-06-01T06:09:41.440Z,1168
2017-06-01T06:10:41.513Z,1196
2017-06-01T06:11:41.556Z,1208
2017-06-01T06:12:41.579Z,1216
2017-06-01T06:13:41.605Z,1208
2017-06-01T06:14:41.893Z,1196
2017-06-01T06:15:41.666Z,1192
2017-06-01T06:16:41.387Z,1188
2017-06-01T06:17:41.727Z,1180
2017-06-01T06:18:41.857Z,1184
2017-06-01T06:19:42.032Z,1196
2017-06-01T06:20:41.818Z,1212
2017-06-01T06:21:40.918Z,1236
2017-06-01T06:22:41.562Z,1260
2017-06-01T06:23:41.909Z,1284
2017-06-01T06:24:41.880Z,1300
2017-06-01T06:25:41.964Z,1312
2017-06-01T06:26:42.006Z,1316
2017-06-01T06:27:41.404Z,1324
2017-06-01T06:28:42.048Z,1332
2017-06-01T06:29:42.350Z,1344
2017-06-01T06:30:42.118Z,1352
2017-06-01T06:31:41.517Z,1364
2017-06-01T06:32:42.175Z,1376
2017-06-01T06:33:42.197Z,1372
2017-06-01T06:34:41.920Z,1364
2017-06-01T06:35:41.643Z,1340
2017-06-01T06:36:41.674Z,1320
2017-06-01T06:37:42.320Z,1308
2017-06-01T06:38:42.356Z,1304
2017-06-01T06:39:42.073Z,1272
2017-06-01T06:40:42.406Z,1256
2017-06-01T06:41:42.442Z,1236
2017-06-01T06:42:41.855Z,1232
2017-06-01T06:43:42.566Z,1224
2017-06-01T06:44:42.222Z,1220
2017-06-01T06:45:42.257Z,1224
2017-06-01T06:46:42.279Z,1228
2017-06-01T06:47:42.624Z,1232
2017-06-01T06:48:42.032Z,1244
2017-06-01T06:49:42.376Z,1264
2017-06-01T06:50:42.402Z,1288
2017-06-01T06:51:42.746Z,1304
2017-06-01T06:52:42.785Z,1320
2017-06-01T06:53:42.492Z,1340
2017-06-01T06:54:42.521Z,1364
2017-06-01T06:55:42.238Z,1388
2017-06-01T06:56:42.275Z,1396
2017-06-01T06:57:42.608Z,1420
2017-06-01T06:58:42.645Z,1436
2017-06-01T06:59:42.989Z,1440
2017-06-01T07:00:42.703Z,1452
2017-06-01T07:01:43.039Z,1448
2017-06-01T07:02:43.076Z,1456
2017-06-01T07:03:42.789Z,1464
2017-06-01T07:04:43.131Z,1456
2017-06-01T07:05:43.162Z,1456
2017-06-01T07:06:42.892Z,1444
2017-06-01T07:07:43.213Z,1444
2017-06-01T07:08:42.943Z,1444
2017-06-01T07:09:42.969Z,1464
2017-06-01T07:10:43.001Z,1484
2017-06-01T07:11:43.343Z,1500
2017-06-01T07:12:43.376Z,1524
2017-06-01T07:13:43.081Z,1540
2017-06-01T07:14:43.432Z,1568
2017-06-01T07:15:43.466Z,1584
2017-06-01T07:16:43.495Z,1604
2017-06-01T07:17:43.211Z,1620
2017-06-01T07:18:42.929Z,1636
2017-06-01T07:19:43.266Z,1648
2017-06-01T07:20:43.610Z,1660
2017-06-01T07:21:43.014Z,1664
2017-06-01T07:22:43.359Z,1664
2017-06-01T07:23:43.705Z,1656
2017-06-01T07:24:43.730Z,1652
2017-06-01T07:25:43.763Z,1652
2017-06-01T07:26:43.485Z,1632
2017-06-01T07:27:43.516Z,1612
2017-06-01T07:28:43.855Z,1588
2017-06-01T07:29:43.877Z,1572
2017-06-01T07:30:43.854Z,1560
2017-06-01T07:31:43.315Z,1552
2017-06-01T07:32:43.661Z,1552
2017-06-01T07:33:43.693Z,1572
2017-06-01T07:34:43.409Z,1596
2017-06-01T07:35:43.954Z,1624
2017-06-01T07:36:43.779Z,1648
2017-06-01T07:37:43.816Z,1664
2017-06-01T07:38:43.849Z,1684
2017-06-01T07:39:43.870Z,1712
2017-06-01T07:40:44.103Z,1744
2017-06-01T07:41:44.244Z,1784
2017-06-01T07:42:44.276Z,1836
2017-06-01T07:43:43.993Z,1900
2017-06-01T07:44:44.024Z,1980
2017-06-01T07:45:44.319Z,2064
2017-06-01T07:46:44.101Z,2124
2017-06-01T07:47:44.116Z,2148
2017-06-01T07:48:44.141Z,2144
2017-06-01T07:49:44.167Z,2124
2017-06-01T07:50:44.705Z,2084
2017-06-01T07:51:44.236Z,2044
2017-06-01T07:52:43.953Z,2008
2017-06-01T07:53:44.597Z,1984
2017-06-01T07:54:44.638Z,1964
2017-06-01T07:55:44.554Z,1960
2017-06-01T07:56:44.691Z,1988
2017-06-01T07:57:44.416Z,2028
2017-06-01T07:58:44.142Z,2060
2017-06-01T07:59:44.477Z,2072
2017-06-01T08:00:45.024Z,2056
2017-06-01T08:01:44.220Z,2044
2017-06-01T08:02:44.878Z,2048
2017-06-01T08:03:44.591Z,2056
2017-06-01T08:04:44.317Z,2064
2017-06-01T08:05:45.223Z,2080
2017-06-01T08:06:44.685Z,2096
2017-06-01T08:07:44.717Z,2116
2017-06-01T08:08:44.746Z,2120
2017-06-01T08:09:44.466Z,2116
2017-06-01T08:10:44.697Z,2092
2017-06-01T08:11:44.836Z,2064
2017-06-01T08:12:45.181Z,2032
2017-06-01T08:13:44.894Z,1992
2017-06-01T08:14:45.243Z,1944
2017-06-01T08:15:44.866Z,1904
2017-06-01T08:16:45.304Z,1864
2017-06-01T08:17:45.331Z,1848
2017-06-01T08:18:45.366Z,1828
2017-06-01T08:19:45.078Z,1812
2017-06-01T08:20:45.619Z,1800
2017-06-01T08:21:45.448Z,1772
2017-06-01T08:22:45.490Z,1748
2017-06-01T08:23:45.509Z,1716
2017-06-01T08:24:45.533Z,1684
2017-06-01T08:25:45.459Z,1652
2017-06-01T08:26:45.603Z,1620
2017-06-01T08:27:45.637Z,1600
2017-06-01T08:28:45.042Z,1568
2017-06-01T08:29:45.689Z,1540
2017-06-01T08:30:45.290Z,1516
2017-06-01T08:31:45.440Z,1500
2017-06-01T08:32:45.788Z,1504
2017-06-01T08:33:45.813Z,1500
2017-06-01T08:34:45.847Z,1496
2017-06-01T08:35:46.079Z,1516
2017-06-01T08:36:45.908Z,1504
2017-06-01T08:37:45.933Z,1520
2017-06-01T08:38:45.338Z,1544
2017-06-01T08:39:45.998Z,1568
2017-06-01T08:40:46.234Z,1616
2017-06-01T08:41:45.751Z,1652
2017-06-01T08:42:45.760Z,1704
2017-06-01T08:43:45.806Z,1744
2017-06-01T08:44:45.847Z,1776
2017-06-01T08:45:46.267Z,1808
2017-06-01T08:46:46.204Z,1848
2017-06-01T08:47:46.237Z,1884
2017-06-01T08:48:46.001Z,1932
2017-06-01T08:49:45.679Z,1968
2017-06-01T08:50:46.565Z,2016
2017-06-01T08:51:46.358Z,2060
2017-06-01T08:52:46.095Z,2104
2017-06-01T08:53:46.161Z,2148
2017-06-01T08:54:46.447Z,2196
2017-06-01T08:55:46.060Z,2240
2017-06-01T08:56:46.195Z,2252
2017-06-01T08:57:46.539Z,2248
2017-06-01T08:58:46.574Z,2240
2017-06-01T08:59:46.614Z,2216
2017-06-01T09:00:46.844Z,2200
2017-06-01T09:01:46.664Z,2172
2017-06-01T09:02:46.385Z,2132
2017-06-01T09:03:46.494Z,2088
2017-06-01T09:04:46.755Z,2048
2017-06-01T09:05:46.978Z,2012
2017-06-01T09:06:46.496Z,1960
2017-06-01T09:07:46.548Z,1920
2017-06-01T09:08:46.259Z,1872
2017-06-01T09:09:46.902Z,1844
2017-06-01T09:10:46.828Z,1848
2017-06-01T09:11:46.969Z,1836
2017-06-01T09:12:46.370Z,1844
2017-06-01T09:13:47.026Z,1820
2017-06-01T09:14:46.739Z,1836
2017-06-01T09:15:47.280Z,1828
2017-06-01T09:16:47.121Z,1860
2017-06-01T09:17:46.839Z,1872
2017-06-01T09:18:47.171Z,1880
2017-06-01T09:19:46.898Z,1920
2017-06-01T09:20:46.814Z,1916
2017-06-01T09:21:46.331Z,1908
2017-06-01T09:22:46.674Z,1924
2017-06-01T09:23:47.333Z,1904
2017-06-01T09:24:47.359Z,1904
2017-06-01T09:25:47.281Z,1896
2017-06-01T09:26:47.108Z,1892
2017-06-01T09:27:47.465Z,1908
2017-06-01T09:28:47.484Z,1892
2017-06-01T09:29:47.203Z,1904
2017-06-01T09:30:47.427Z,1912
2017-06-01T09:31:47.568Z,1924
2017-06-01T09:32:47.295Z,1940
2017-06-01T09:33:47.323Z,1944
2017-06-01T09:34:47.667Z,1944
2017-06-01T09:35:47.611Z,1948
2017-06-01T09:36:47.090Z,1948
2017-06-01T09:37:47.760Z,1952
2017-06-01T09:38:47.473Z,1984
2017-06-01T09:39:47.503Z,2004
2017-06-01T09:40:47.224Z,2028
2017-06-01T09:41:47.564Z,2048
2017-06-01T09:42:47.593Z,2072
2017-06-01T09:43:47.311Z,2092
2017-06-01T09:44:47.967Z,2092
2017-06-01T09:45:48.000Z,2128
2017-06-01T09:46:47.708Z,2152
2017-06-01T09:47:47.750Z,2172
2017-06-01T09:48:48.094Z,2208
2017-06-01T09:49:48.115Z,2260
2017-06-01T09:50:47.837Z,2324
2017-06-01T09:51:48.065Z,2380
2017-06-01T09:52:48.213Z,2372
2017-06-01T09:53:47.939Z,2324
2017-06-01T09:54:47.964Z,2276
2017-06-01T09:55:48.313Z,2244
2017-06-01T09:56:48.218Z,2232
2017-06-01T09:57:48.371Z,2228
2017-06-01T09:58:48.079Z,2228
2017-06-01T09:59:48.120Z,2224
2017-06-01T10:00:48.144Z,2152
2017-06-01T10:01:48.693Z,2168
2017-06-01T10:02:48.207Z,2208
2017-06-01T10:03:48.247Z,2244
2017-06-01T10:04:48.580Z,2268
2017-06-01T10:05:48.297Z,2284
2017-06-01T10:06:48.841Z,2316
2017-06-01T10:07:48.667Z,2308
2017-06-01T10:08:48.698Z,2360
2017-06-01T10:09:48.435Z,2380
2017-06-01T10:10:48.435Z,2404
2017-06-01T10:11:48.677Z,2420
2017-06-01T10:12:48.506Z,2444
2017-06-01T10:13:48.547Z,2484
2017-06-01T10:14:48.567Z,2512
2017-06-01T10:15:48.612Z,2528
2017-06-01T10:16:48.517Z,2544
2017-06-01T10:17:48.979Z,2592
2017-06-01T10:18:48.699Z,2652
2017-06-01T10:19:48.724Z,2748
2017-06-01T10:20:49.068Z,2848
2017-06-01T10:21:48.984Z,2940
2017-06-01T10:22:48.814Z,2976
2017-06-01T10:23:48.539Z,2964
2017-06-01T10:24:49.188Z,2856
2017-06-01T10:25:49.420Z,2760
2017-06-01T10:26:48.822Z,2740
2017-06-01T10:27:49.278Z,2820
2017-06-01T10:28:48.998Z,2924
2017-06-01T10:29:49.052Z,3052
2017-06-01T10:30:49.373Z,3152
2017-06-01T10:31:49.609Z,3104
2017-06-01T10:32:49.432Z,3064
2017-06-01T10:33:49.150Z,3072
2017-06-01T10:34:48.576Z,3136
2017-06-01T10:35:49.528Z,3316
2017-06-01T10:36:49.759Z,3492
2017-06-01T10:37:48.957Z,3560
2017-06-01T10:38:49.619Z,3460
2017-06-01T10:39:49.646Z,3404
2017-06-01T10:40:49.372Z,3400
2017-06-01T10:41:49.597Z,3356
2017-06-01T10:42:49.425Z,3320
2017-06-01T10:43:49.478Z,3400
2017-06-01T10:44:49.487Z,3480
2017-06-01T10:45:49.526Z,3528
2017-06-01T10:46:49.437Z,3576
2017-06-01T10:47:49.582Z,3592
2017-06-01T10:48:49.686Z,3596
2017-06-01T10:49:49.956Z,3548
2017-06-01T10:50:49.990Z,3548
2017-06-01T10:51:49.901Z,3568
2017-06-01T10:52:50.047Z,3552
2017-06-01T10:53:50.084Z,3464
2017-06-01T10:54:50.113Z,3584
2017-06-01T10:55:50.141Z,3708
2017-06-01T10:56:50.370Z,3740
2017-06-01T10:57:50.211Z,3632
2017-06-01T10:58:50.228Z,3492
2017-06-01T10:59:50.263Z,3460
2017-06-01T11:00:50.288Z,3464
2017-06-01T11:01:50.581Z,3488
2017-06-01T11:02:50.039Z,3256
2017-06-01T11:03:50.068Z,3148
2017-06-01T11:04:50.416Z,3180
2017-06-01T11:05:50.137Z,3432
2017-06-01T11:06:50.366Z,3508
2017-06-01T11:07:49.882Z,3568
2017-06-01T11:08:49.916Z,3648
2017-06-01T11:09:50.252Z,3528
2017-06-01T11:10:50.290Z,3660
2017-06-01T11:11:50.211Z,3716
2017-06-01T11:12:50.351Z,3756
2017-06-01T11:13:50.698Z,3796
2017-06-01T11:14:50.106Z,3800
2017-06-01T11:15:50.752Z,3824
2017-06-01T11:16:50.671Z,3868
2017-06-01T11:17:50.819Z,3924
2017-06-01T11:18:50.223Z,4036
2017-06-01T11:19:50.565Z,4100
2017-06-01T11:20:50.908Z,4188
2017-06-01T11:21:50.832Z,4348
2017-06-01T11:22:50.658Z,4504
2017-06-01T11:23:51.028Z,4664
2017-06-01T11:24:51.037Z,4932
2017-06-01T11:25:50.755Z,5368
2017-06-01T11:26:51.345Z,5772
2017-06-01T11:27:51.127Z,6204
2017-06-01T11:28:51.150Z,6472
2017-06-01T11:29:51.188Z,6852
2017-06-01T11:30:51.222Z,7324
2017-06-01T11:31:51.138Z,7488
2017-06-01T11:32:51.279Z,7224
2017-06-01T11:33:51.315Z,7436
2017-06-01T11:34:51.335Z,7332
2017-06-01T11:35:51.060Z,6952
2017-06-01T11:36:51.650Z,6748
2017-06-01T11:37:51.124Z,6884
2017-06-01T11:38:51.156Z,7084
2017-06-01T11:39:51.185Z,7188
2017-06-01T11:40:51.214Z,7612
2017-06-01T11:41:51.810Z,7824
2017-06-01T11:42:50.966Z,8228
2017-06-01T11:43:51.318Z,8468
2017-06-01T11:44:51.657Z,8728
2017-06-01T11:45:51.681Z,9008
2017-06-01T11:46:51.970Z,9724
2017-06-01T11:47:51.751Z,11904
2017-06-01T11:48:51.155Z,14400
2017-06-01T11:49:51.500Z,23008
2017-06-01T11:50:51.842Z,28960
2017-06-01T11:51:51.501Z,30624
2017-06-01T11:52:51.604Z,32256
2017-06-01T11:53:51.628Z,33504
2017-06-01T11:54:51.974Z,33696
2017-06-01T11:55:52.013Z,33376
2017-06-01T11:56:52.239Z,34624
2017-06-01T11:57:52.062Z,36544
2017-06-01T11:58:51.794Z,40128
2017-06-01T11:59:52.132Z,45472
2017-06-01T12:00:51.850Z,46528
2017-06-01T12:01:51.778Z,44512
2017-06-01T12:02:51.606Z,41728
2017-06-01T12:03:52.264Z,41952
2017-06-01T12:04:52.300Z,40064
2017-06-01T12:05:52.018Z,45344
2017-06-01T12:06:52.562Z,46592
2017-06-01T12:07:52.092Z,45760
2017-06-01T12:08:52.433Z,51552
2017-06-01T12:09:52.153Z,46400
2017-06-01T12:10:52.187Z,49088
2017-06-01T12:11:52.210Z,50208
2017-06-01T12:12:52.247Z,44512
2017-06-01T12:13:52.299Z,41088
2017-06-01T12:14:52.013Z,33952
2017-06-01T12:15:52.670Z,33664
2017-06-01T12:16:52.091Z,26592
2017-06-01T12:17:52.735Z,50432
2017-06-01T12:18:52.769Z,51872
2017-06-01T12:19:52.800Z,48608
2017-06-01T12:20:52.830Z,28096
2017-06-01T12:21:52.879Z,44704
2017-06-01T12:22:52.589Z,27808
2017-06-01T12:23:52.945Z,29504
2017-06-01T12:24:52.370Z,50016
2017-06-01T12:25:52.694Z,25216
2017-06-01T12:26:52.431Z,53408
2017-06-01T12:27:53.279Z,45344
2017-06-01T12:28:53.120Z,45760
2017-06-01T12:29:53.154Z,44768
2017-06-01T12:30:53.185Z,45120
2017-06-01T12:31:53.218Z,48576
2017-06-01T12:32:53.152Z,57664
2017-06-01T12:33:53.280Z,66464
2017-06-01T12:34:53.327Z,71136
2017-06-01T12:35:53.359Z,72320
2017-06-01T12:36:53.086Z,73312
2017-06-01T12:37:53.014Z,74784
2017-06-01T12:38:52.837Z,74624
2017-06-01T12:39:52.881Z,70912
2017-06-01T12:40:53.225Z,70720
2017-06-01T12:41:53.628Z,72448
2017-06-01T12:42:53.183Z,73280
2017-06-01T12:43:53.647Z,71424
2017-06-01T12:44:53.045Z,65888
2017-06-01T12:45:53.715Z,63456
2017-06-01T12:46:53.747Z,65280
2017-06-01T12:47:54.039Z,70336
2017-06-01T12:48:53.505Z,72896
2017-06-01T12:49:53.550Z,71584
2017-06-01T12:50:53.584Z,70048
2017-06-01T12:51:53.608Z,69440
2017-06-01T12:52:54.160Z,68032
2017-06-01T12:53:53.686Z,70944
2017-06-01T12:54:53.730Z,70912
2017-06-01T12:55:53.760Z,71008
2017-06-01T12:56:53.547Z,71488
2017-06-01T12:57:54.395Z,70368
2017-06-01T12:58:53.865Z,70432
2017-06-01T12:59:54.218Z,70816
2017-06-01T13:00:54.251Z,71968
2017-06-01T13:01:54.283Z,73600
2017-06-01T13:02:54.208Z,71456
2017-06-01T13:03:54.041Z,71584
2017-06-01T13:04:54.385Z,69920
2017-06-01T13:05:54.427Z,71968
2017-06-01T13:06:54.468Z,72704
2017-06-01T13:07:54.701Z,70496
2017-06-01T13:08:54.225Z,70592
2017-06-01T13:09:54.579Z,71712
2017-06-01T13:10:53.994Z,70496
2017-06-01T13:11:54.020Z,68512
2017-06-01T13:12:54.569Z,67264
2017-06-01T13:13:54.401Z,66048
2017-06-01T13:14:54.755Z,64512
2017-06-01T13:15:54.790Z,61088
2017-06-01T13:16:54.824Z,64608
2017-06-01T13:17:54.745Z,65920
2017-06-01T13:18:54.586Z,63040
2017-06-01T13:19:54.626Z,64992
2017-06-01T13:20:54.351Z,65824
2017-06-01T13:21:55.007Z,47712
2017-06-01T13:22:55.241Z,64576
2017-06-01T13:23:54.762Z,64896
2017-06-01T13:24:54.794Z,60864
2017-06-01T13:25:55.143Z,66944
2017-06-01T13:26:54.867Z,67136
2017-06-01T13:27:55.420Z,66240
2017-06-01T13:28:55.259Z,64544
2017-06-01T13:29:55.286Z,66080
2017-06-01T13:30:55.014Z,70240
2017-06-01T13:31:55.045Z,71744
2017-06-01T13:32:55.284Z,73568
2017-06-01T13:33:54.812Z,72448
2017-06-01T13:34:55.156Z,71968
2017-06-01T13:35:55.511Z,71840
2017-06-01T13:36:55.536Z,68256
2017-06-01T13:37:55.172Z,25312
2017-06-01T13:38:55.612Z,68160
2017-06-01T13:39:55.027Z,24000
2017-06-01T13:40:55.376Z,21312